North Vancouver, British Columbia

1:07 AM PDT on September 04, 2015 (GMT -0700)
Westview Dr | | Change Station
CLOSE
Current Station
Personal Weather Station
Location: North Vancouver, BC
Elevation: 0 ft
Nearby Weather Stations

Elev 0 ft 49.33 °N, 123.09 °W | Updated 4 seconds ago

Mostly Cloudy
Mostly Cloudy
49.3 °F
Feels Like 49 °F
N
0.0
Wind Variable Wind from North
Gusts 0.0 mph

Today is forecast to be nearly the same temperature as yesterday.

Today
High -- | Low -- °F
--% Chance of Precip.
Yesterday
High -- | Low -- °F
Precip. -- in
6:32 AM 7:49 PM
Waning Gibbous, 62% visible
Pressure 30.03 in
Visibility 15.0 miles
Clouds Few 2500 ft
Mostly Cloudy 5000 ft
Mostly Cloudy 8000 ft
Windchill 49 °F
Dew Point 48 °F
Humidity 94%
Rainfall 0.00 in
Snow Depth Not available.
UV 0 out of 12
Pollen Not available.
Air Quality Not available.
Flu Activity Not available.
METAR CYVR 040800Z 08004KT 15SM FEW025 BKN050 BKN080 11/08 A3003 RMK SC2SC4AC1 SLP168
Pressure 30.03 in
Visibility 15.0 miles
Clouds Few 2500 ft
Mostly Cloudy 5000 ft
Mostly Cloudy 8000 ft
Windchill 49 °F
Dew Point 48 °F
Humidity 94%
Rainfall 0.00 in
Snow Depth Not available.
UV 0 out of 12
Pollen Not available.
Air Quality Not available.
Flu Activity Not available.
METAR CYVR 040800Z 08004KT 15SM FEW025 BKN050 BKN080 11/08 A3003 RMK SC2SC4AC1 SLP168

10-Day Weather Forecast

×

Almanac

Astronomy

Sep. 04, 2015 Rise Set
Actual Time
Civil Twilight
Nautical Twilight
Astronomical Twilight
Moon
Length of Visible Light
Length of Day
Tomorrow will be .
, % of the Moon is Illuminated

Today's Extremes

Country Highs Country Lows

Community

WunderPhotos

Upload Photos

1,852,141 photos uploaded!

WunderBlogs® & News

Nearby

Air Quality

  Air Quality AQ Index Pollutant
Not available.

Snow Depth

Station Depth Elevation

Earthquake Activity

City Distance Mag. Time & Date
Minimum magnitude displayed is 2.5.

Coastal Water Temperatures

Place Temperature

Stations

Nearby Weather Stations

Station Location Temp. Windchill Dew Point Humidity Wind Precip. Elev Updated Type